This is the latest recevied weather packets stored in our database for station/object EA1GGY-1. If no packets are shown the sender has not sent any weather packets the latest 10 day(s).
| Time | Temp. | Humidity | Pressure | Rain* | Wind** | Luminosity | Snow |
|---|---|---|---|---|---|---|---|
| 1778161749 | 14.44° C | 50% | 1005.3 hPa | - | - | - | - |
| 1778161149 | 15° C | 51% | 1005.1 hPa | - | - | - | - |
| 1778160548 | 14.44° C | 50% | 1005.2 hPa | - | - | - | - |
| 1778159947 | 14.44° C | 51% | 1005.4 hPa | - | - | - | - |
| 1778159348 | 13.89° C | 55% | 1005.6 hPa | - | - | - | - |
| 1778158746 | 13.33° C | 60% | 1005.8 hPa | - | - | - | - |
| 1778158145 | 12.22° C | 68% | 1006 hPa | - | - | - | - |
| 1778157545 | 11.11° C | 66% | 1006.3 hPa | - | - | - | - |
| 1778156943 | 10.56° C | 65% | 1007.1 hPa | - | - | - | - |
| 1778156343 | 12.78° C | 60% | 1006.6 hPa | - | - | - | - |
| 1778155743 | 12.78° C | 58% | 1006.4 hPa | - | - | - | - |
| 1778155141 | 14.44° C | 42% | 1005.9 hPa | - | - | - | - |
| 1778154540 | 14.44° C | 43% | 1005.8 hPa | - | - | - | - |
| 1778153940 | 15° C | 46% | 1005.9 hPa | - | - | - | - |
| 1778153338 | 15° C | 46% | 1005.8 hPa | - | - | - | - |
| 1778152738 | 15° C | 47% | 1005.9 hPa | - | - | - | - |
| 1778152138 | 13.89° C | 50% | 1006 hPa | - | - | - | - |
| 1778151536 | 15.56° C | 48% | 1006 hPa | - | - | - | - |
| 1778150935 | 15° C | 47% | 1006 hPa | - | - | - | - |
| 1778150334 | 13.33° C | 53% | 1006.2 hPa | - | - | - | - |
| 1778149734 | 13.33° C | 52% | 1006.2 hPa | - | - | - | - |
| 1778149133 | 13.33° C | 53% | 1006.3 hPa | - | - | - | - |
| 1778148532 | 13.33° C | 53% | 1006.2 hPa | - | - | - | - |
| 1778147931 | 13.33° C | 52% | 1006.4 hPa | - | - | - | - |
| 1778147331 | 13.89° C | 51% | 1006.3 hPa | - | - | - | - |
* Rain since midnight (hover to see other rain measurements)
** Current wind speed in m/s (hover to see current wind gust speed)